createdAt,value
2023-01-29T00:01:56.330Z,100999.16
2023-01-29T00:05:26.043Z,100994.38
2023-01-29T00:08:39.645Z,100992.63
2023-01-29T00:11:52.321Z,100998.34
2023-01-29T00:15:05.079Z,100987.72
2023-01-29T00:18:17.774Z,100988.59
2023-01-29T00:21:33.492Z,100998.44
2023-01-29T00:24:46.126Z,100999.03
2023-01-29T00:27:58.590Z,101006.16
2023-01-29T00:31:13.224Z,101005.00
2023-01-29T00:34:25.632Z,101006.41
2023-01-29T00:37:38.396Z,101007.38
2023-01-29T00:41:09.692Z,101020.44
2023-01-29T00:44:40.735Z,101016.81
2023-01-29T00:47:53.127Z,101007.63
2023-01-29T00:51:06.722Z,101019.75
2023-01-29T00:54:19.277Z,101018.12
2023-01-29T00:57:32.367Z,101010.41
2023-01-29T01:00:44.803Z,101010.63
2023-01-29T01:03:58.503Z,101012.50
2023-01-29T01:10:41.042Z,101024.22
2023-01-29T01:13:54.535Z,101012.63
2023-01-29T01:17:07.192Z,101015.69
2023-01-29T01:20:19.691Z,101021.62
2023-01-29T01:23:32.422Z,101025.09
2023-01-29T01:26:44.809Z,101017.41
2023-01-29T01:29:58.024Z,101021.97
2023-01-29T01:33:10.378Z,101024.88
2023-01-29T01:36:22.999Z,101016.91
2023-01-29T01:39:35.371Z,101019.63
2023-01-29T01:42:51.826Z,101014.09
2023-01-29T01:46:04.489Z,101022.28
2023-01-29T01:49:18.473Z,101024.59
2023-01-29T01:52:31.245Z,101028.09
2023-01-29T01:55:52.487Z,101042.25
2023-01-29T01:59:05.790Z,101039.69
2023-01-29T02:02:36.963Z,101052.78
2023-01-29T02:06:08.272Z,101054.72
2023-01-29T02:09:38.874Z,101059.91
2023-01-29T02:12:51.567Z,101059.22
2023-01-29T02:16:04.023Z,101055.44
2023-01-29T02:19:44.272Z,101056.56
2023-01-29T02:23:34.369Z,101056.81
2023-01-29T02:27:13.671Z,101063.44
2023-01-29T02:30:31.931Z,101055.78
2023-01-29T02:34:06.154Z,101056.19
2023-01-29T02:37:18.607Z,101055.72
2023-01-29T02:40:37.092Z,101055.47
2023-01-29T02:44:04.626Z,101064.94
2023-01-29T02:47:23.253Z,101056.56
2023-01-29T02:50:41.178Z,101064.34
2023-01-29T02:54:10.292Z,101070.41
2023-01-29T02:57:25.483Z,101072.78
2023-01-29T03:00:40.331Z,101079.25
2023-01-29T03:03:53.582Z,101089.59
2023-01-29T03:07:10.706Z,101087.53
2023-01-29T03:10:35.411Z,101094.91
2023-01-29T03:13:56.187Z,101094.69
2023-01-29T03:17:10.564Z,101102.69
2023-01-29T03:20:26.522Z,101109.62
2023-01-29T03:23:57.603Z,101103.47
2023-01-29T03:27:29.410Z,101106.44
2023-01-29T03:31:06.768Z,101108.19
2023-01-29T03:34:28.642Z,101102.22
2023-01-29T03:37:43.583Z,101105.34
2023-01-29T03:41:00.305Z,101113.91
2023-01-29T03:44:30.766Z,101116.81
2023-01-29T03:47:55.871Z,101120.28
2023-01-29T03:51:12.097Z,101124.50
2023-01-29T03:54:39.271Z,101126.44
2023-01-29T03:58:06.492Z,101117.47
2023-01-29T04:01:48.901Z,101121.97
2023-01-29T04:05:07.755Z,101119.88
2023-01-29T04:08:25.117Z,101121.78
2023-01-29T04:11:38.767Z,101126.47
2023-01-29T04:14:51.113Z,101124.66
2023-01-29T04:18:04.135Z,101125.66
2023-01-29T04:21:18.503Z,101112.97
2023-01-29T04:24:31.191Z,101117.69
2023-01-29T04:27:50.375Z,101109.81
2023-01-29T04:31:06.794Z,101112.88
2023-01-29T04:34:29.313Z,101108.47
2023-01-29T04:37:48.354Z,101107.63
2023-01-29T04:41:11.742Z,101111.31
2023-01-29T04:44:42.627Z,101103.72
2023-01-29T04:48:04.016Z,101107.69
2023-01-29T04:51:21.220Z,101105.09
2023-01-29T04:55:29.437Z,101106.19
2023-01-29T04:58:44.626Z,101100.44
2023-01-29T05:01:57.051Z,101115.84
2023-01-29T05:05:09.681Z,101119.13
2023-01-29T05:08:23.219Z,101118.00
2023-01-29T05:11:36.186Z,101118.50
2023-01-29T05:14:48.508Z,101125.50
2023-01-29T05:18:03.220Z,101134.12
2023-01-29T05:21:15.643Z,101123.88
2023-01-29T05:24:28.305Z,101119.62
2023-01-29T05:27:59.264Z,101119.31
2023-01-29T05:31:12.135Z,101117.88
2023-01-29T05:34:24.648Z,101136.25
2023-01-29T05:37:37.444Z,101123.00
2023-01-29T05:40:49.827Z,101123.25
2023-01-29T05:44:02.419Z,101132.06
2023-01-29T05:47:14.751Z,101126.50
2023-01-29T05:50:27.560Z,101105.66
2023-01-29T05:53:40.278Z,101107.66
2023-01-29T05:56:55.474Z,101107.81
2023-01-29T06:00:08.797Z,101105.97
2023-01-29T06:03:24.790Z,101114.44
2023-01-29T06:06:37.385Z,101114.19
2023-01-29T06:09:49.739Z,101110.47
2023-01-29T06:13:02.544Z,101121.09
2023-01-29T06:16:15.323Z,101121.78
2023-01-29T06:19:27.918Z,101124.69
2023-01-29T06:22:40.246Z,101133.22
2023-01-29T06:25:52.867Z,101147.22
2023-01-29T06:29:05.272Z,101149.09
2023-01-29T06:32:17.908Z,101154.00
2023-01-29T06:35:30.297Z,101157.25
2023-01-29T06:38:42.967Z,101162.84
2023-01-29T06:41:55.341Z,101163.84
2023-01-29T06:45:08.507Z,101170.84
2023-01-29T06:48:20.878Z,101177.19
2023-01-29T06:51:33.477Z,101187.91
2023-01-29T06:54:45.835Z,101184.97
2023-01-29T06:57:58.509Z,101191.84
2023-01-29T07:01:15.516Z,101194.00
2023-01-29T07:04:37.907Z,101201.31
2023-01-29T07:07:50.276Z,101206.13
2023-01-29T07:11:03.451Z,101202.31
2023-01-29T07:14:15.821Z,101204.06
2023-01-29T07:17:28.468Z,101194.19
2023-01-29T07:20:41.090Z,101184.78
2023-01-29T07:23:53.745Z,101185.13
2023-01-29T07:27:06.151Z,101176.84
2023-01-29T07:30:19.132Z,101170.91
2023-01-29T07:33:32.005Z,101166.97
2023-01-29T07:36:44.623Z,101169.00
2023-01-29T07:39:56.967Z,101161.88
2023-01-29T07:43:10.127Z,101150.19
2023-01-29T07:46:23.603Z,101166.41
2023-01-29T07:49:36.218Z,101164.25
2023-01-29T07:52:48.579Z,101163.19
2023-01-29T07:56:01.251Z,101162.97
2023-01-29T07:59:13.624Z,101158.34
2023-01-29T08:02:26.256Z,101157.69
2023-01-29T08:05:38.868Z,101154.19
2023-01-29T08:08:52.245Z,101156.47
2023-01-29T08:12:05.056Z,101152.37
2023-01-29T08:15:17.450Z,101154.69
2023-01-29T08:18:31.576Z,101158.56
2023-01-29T08:21:43.983Z,101161.47
2023-01-29T08:25:06.293Z,101156.22
2023-01-29T08:28:20.425Z,101155.63
2023-01-29T08:31:33.620Z,101169.50
2023-01-29T08:34:46.041Z,101157.12
2023-01-29T08:38:00.028Z,101167.34
2023-01-29T08:41:12.383Z,101167.41
2023-01-29T08:44:24.991Z,101177.56
2023-01-29T08:47:37.347Z,101184.47
2023-01-29T08:50:50.129Z,101190.72
2023-01-29T08:54:02.467Z,101201.84
2023-01-29T08:57:15.094Z,101207.97
2023-01-29T09:00:27.461Z,101205.78
2023-01-29T09:03:41.219Z,101212.78
2023-01-29T09:06:53.599Z,101211.56
2023-01-29T09:10:06.419Z,101216.53
2023-01-29T09:13:18.726Z,101216.63
2023-01-29T09:16:31.398Z,101218.97
2023-01-29T09:19:43.801Z,101227.75
2023-01-29T09:22:56.835Z,101227.19
2023-01-29T09:26:09.688Z,101222.91
2023-01-29T09:29:22.333Z,101215.97
2023-01-29T09:32:53.608Z,101219.69
2023-01-29T09:36:07.302Z,101220.06
2023-01-29T09:39:19.603Z,101210.06
2023-01-29T09:42:42.001Z,101219.84
2023-01-29T09:46:02.218Z,101225.84
2023-01-29T09:49:16.187Z,101228.91
2023-01-29T09:52:32.317Z,101224.44
2023-01-29T09:55:54.396Z,101223.63
2023-01-29T09:59:08.327Z,101232.25
2023-01-29T10:02:39.160Z,101230.03
2023-01-29T10:05:55.751Z,101215.56
2023-01-29T10:09:32.616Z,101219.34
2023-01-29T10:12:54.005Z,101228.56
2023-01-29T10:16:21.989Z,101225.47
2023-01-29T10:19:56.371Z,101228.12
2023-01-29T10:23:18.928Z,101231.66
2023-01-29T10:26:31.625Z,101233.03
2023-01-29T10:29:44.544Z,101226.16
2023-01-29T10:32:59.905Z,101221.91
2023-01-29T10:36:15.389Z,101214.69
2023-01-29T10:39:30.244Z,101211.72
2023-01-29T10:42:46.403Z,101206.13
2023-01-29T10:46:26.576Z,101213.44
2023-01-29T10:50:17.797Z,101226.87
2023-01-29T10:54:14.986Z,101213.19
2023-01-29T10:57:48.935Z,101222.12
2023-01-29T11:01:01.552Z,101201.28
2023-01-29T11:04:13.888Z,101209.72
2023-01-29T11:07:27.848Z,101200.16
2023-01-29T11:11:11.680Z,101191.66
2023-01-29T11:14:28.530Z,101192.06
2023-01-29T11:17:41.789Z,101183.81
2023-01-29T11:21:03.042Z,101175.97
2023-01-29T11:24:18.759Z,101174.00
2023-01-29T11:27:33.216Z,101178.06
2023-01-29T11:30:45.575Z,101179.06
2023-01-29T11:34:18.551Z,101168.38
2023-01-29T11:37:41.083Z,101156.31
2023-01-29T11:40:54.014Z,101160.84
2023-01-29T11:44:18.333Z,101155.81
2023-01-29T11:47:31.011Z,101156.31
2023-01-29T11:50:43.474Z,101145.06
2023-01-29T11:53:57.391Z,101145.81
2023-01-29T11:57:24.777Z,101139.56
2023-01-29T12:00:37.195Z,101131.44
2023-01-29T12:03:53.069Z,101108.56
2023-01-29T12:07:05.511Z,101116.22
2023-01-29T12:10:35.512Z,101105.44
2023-01-29T12:13:47.852Z,101103.34
2023-01-29T12:17:07.514Z,101107.94
2023-01-29T12:20:24.242Z,101113.78
2023-01-29T12:23:58.358Z,101105.81
2023-01-29T12:27:46.688Z,101105.16
2023-01-29T12:31:12.622Z,101104.34
2023-01-29T12:34:33.753Z,101113.41
2023-01-29T12:38:21.887Z,101111.31
2023-01-29T12:41:34.243Z,101118.13
2023-01-29T12:45:08.723Z,101113.41
2023-01-29T12:48:26.804Z,101101.66
2023-01-29T12:51:43.292Z,101105.25
2023-01-29T12:55:20.891Z,101106.03
2023-01-29T12:58:36.545Z,101102.94
2023-01-29T13:01:56.784Z,101101.06
2023-01-29T13:05:38.718Z,101106.34
2023-01-29T13:09:07.503Z,101101.94
2023-01-29T13:12:20.882Z,101098.41
2023-01-29T13:15:40.805Z,101100.63
2023-01-29T13:19:00.618Z,101097.59
2023-01-29T13:22:22.776Z,101070.47
2023-01-29T13:25:35.417Z,101066.31
2023-01-29T13:28:47.896Z,101053.94
2023-01-29T13:32:01.537Z,101047.84
2023-01-29T13:35:14.337Z,101048.22
2023-01-29T13:38:29.493Z,101045.91
2023-01-29T13:41:42.544Z,101046.50
2023-01-29T13:44:56.334Z,101043.00
2023-01-29T13:48:18.695Z,101028.59
2023-01-29T13:51:35.308Z,101026.69
2023-01-29T13:55:02.588Z,101028.34
2023-01-29T13:58:18.743Z,101034.94
2023-01-29T14:01:49.318Z,101028.50
2023-01-29T14:05:29.546Z,101035.59
2023-01-29T14:08:47.398Z,101046.16
2023-01-29T14:12:00.112Z,101051.78
2023-01-29T14:15:19.095Z,101043.91
2023-01-29T14:18:34.735Z,101021.34
2023-01-29T14:21:49.191Z,101037.59
2023-01-29T14:25:04.773Z,101030.53
2023-01-29T14:28:21.379Z,101044.25
2023-01-29T14:31:44.185Z,101050.09
2023-01-29T14:35:03.899Z,101051.50
2023-01-29T14:38:16.686Z,101054.13
2023-01-29T14:41:33.184Z,101047.91
2023-01-29T14:44:45.858Z,101049.38
2023-01-29T14:48:21.215Z,101036.56
2023-01-29T14:51:35.810Z,101045.56
2023-01-29T14:54:48.288Z,101042.91
2023-01-29T14:58:00.959Z,101040.00
2023-01-29T15:01:22.499Z,101044.47
2023-01-29T15:04:41.876Z,101053.41
2023-01-29T15:08:04.783Z,101054.72
2023-01-29T15:11:37.707Z,101054.59
2023-01-29T15:15:14.949Z,101050.13
2023-01-29T15:18:47.987Z,101047.88
2023-01-29T15:22:13.337Z,101055.81
2023-01-29T15:25:25.917Z,101058.50
2023-01-29T15:28:38.814Z,101055.47
2023-01-29T15:31:51.611Z,101054.88
2023-01-29T15:35:36.807Z,101057.87
2023-01-29T15:38:49.489Z,101046.72
2023-01-29T15:42:11.476Z,101044.25
2023-01-29T15:45:33.463Z,101044.69
2023-01-29T15:48:45.813Z,101056.38
2023-01-29T15:51:59.739Z,101054.81
2023-01-29T15:55:12.079Z,101052.59
2023-01-29T15:58:29.496Z,101052.75
2023-01-29T16:01:42.874Z,101060.94
2023-01-29T16:04:55.543Z,101062.62
2023-01-29T16:08:12.889Z,101062.16
2023-01-29T16:11:25.556Z,101075.03
2023-01-29T16:14:37.897Z,101073.34
2023-01-29T16:17:50.743Z,101071.72
2023-01-29T16:21:17.214Z,101067.34
2023-01-29T16:24:31.283Z,101063.16
2023-01-29T16:27:43.924Z,101062.47
2023-01-29T16:31:02.663Z,101071.59
2023-01-29T16:34:19.543Z,101077.28
2023-01-29T16:37:36.401Z,101074.00
2023-01-29T16:41:14.707Z,101085.88
2023-01-29T16:44:40.869Z,101081.84
2023-01-29T16:48:00.830Z,101093.00
2023-01-29T16:51:36.905Z,101103.03
2023-01-29T16:54:49.373Z,101097.09
2023-01-29T16:58:04.586Z,101104.87
2023-01-29T17:01:16.983Z,101103.22
2023-01-29T17:04:29.721Z,101100.00
2023-01-29T17:07:44.243Z,101097.19
2023-01-29T17:10:56.890Z,101105.78
2023-01-29T17:14:09.603Z,101107.97
2023-01-29T17:17:22.393Z,101104.16
2023-01-29T17:20:34.757Z,101102.09
2023-01-29T17:23:47.440Z,101106.78
2023-01-29T17:27:00.806Z,101104.37
2023-01-29T17:30:15.440Z,101090.94
2023-01-29T17:33:27.829Z,101092.81
2023-01-29T17:36:43.930Z,101088.56
2023-01-29T17:39:56.380Z,101083.56
2023-01-29T17:43:11.700Z,101076.84
2023-01-29T17:46:24.061Z,101082.53
2023-01-29T17:49:37.459Z,101068.25
2023-01-29T17:52:50.349Z,101063.75
2023-01-29T17:56:02.981Z,101052.69
2023-01-29T17:59:16.903Z,101058.13
2023-01-29T18:02:30.088Z,101045.56
2023-01-29T18:05:46.816Z,101046.72
2023-01-29T18:08:59.176Z,101039.72
2023-01-29T18:12:11.904Z,101035.44
2023-01-29T18:15:24.204Z,101033.59
2023-01-29T18:18:37.692Z,101037.06
2023-01-29T18:21:50.314Z,101030.88
2023-01-29T18:25:02.949Z,101031.00
2023-01-29T18:28:17.139Z,101030.34
2023-01-29T18:31:29.852Z,101035.47
2023-01-29T18:34:42.320Z,101040.16
2023-01-29T18:37:55.088Z,101030.84
2023-01-29T18:41:10.630Z,101030.41
2023-01-29T18:44:23.316Z,101022.34
2023-01-29T18:47:35.621Z,101024.72
2023-01-29T18:50:48.241Z,101026.38
2023-01-29T18:54:01.124Z,101027.47
2023-01-29T18:57:43.692Z,101017.97
2023-01-29T19:00:46.427Z,101029.66
2023-01-29T19:04:00.342Z,101039.06
2023-01-29T19:07:13.485Z,101022.72
2023-01-29T19:10:26.365Z,101027.00
2023-01-29T19:13:38.782Z,101026.03
2023-01-29T19:16:51.530Z,101024.09
2023-01-29T19:20:04.832Z,101023.44
2023-01-29T19:23:17.456Z,101021.81
2023-01-29T19:26:33.949Z,101019.34
2023-01-29T19:29:46.672Z,101022.19
2023-01-29T19:32:58.999Z,101016.97
2023-01-29T19:36:13.227Z,101020.72
2023-01-29T19:39:29.899Z,101014.31
2023-01-29T19:42:43.658Z,101016.50
2023-01-29T19:46:00.430Z,101027.22
2023-01-29T19:49:13.083Z,101019.31
2023-01-29T19:52:51.213Z,101015.94
2023-01-29T19:56:06.257Z,101010.81
2023-01-29T19:59:19.175Z,101009.63
2023-01-29T20:02:32.479Z,101007.34
2023-01-29T20:05:45.072Z,101011.47
2023-01-29T20:08:57.408Z,101010.63
2023-01-29T20:12:10.031Z,101006.37
2023-01-29T20:15:22.554Z,101013.91
2023-01-29T20:18:35.151Z,101016.84
2023-01-29T20:21:48.912Z,101005.50
2023-01-29T20:25:01.638Z,101000.78
2023-01-29T20:28:15.149Z,100997.44
2023-01-29T20:31:27.789Z,101001.75
2023-01-29T20:34:40.956Z,100993.75
2023-01-29T20:37:53.582Z,100983.56
2023-01-29T20:41:16.188Z,100980.72
2023-01-29T20:44:28.818Z,100974.72
2023-01-29T20:47:42.385Z,100982.00
2023-01-29T20:50:55.148Z,100992.72
2023-01-29T20:54:08.145Z,100986.97
2023-01-29T20:57:20.999Z,100987.78
2023-01-29T21:00:33.522Z,100991.88
2023-01-29T21:03:46.616Z,100987.94
2023-01-29T21:06:58.921Z,100985.87
2023-01-29T21:10:11.672Z,100995.19
2023-01-29T21:13:24.038Z,100996.09
2023-01-29T21:16:36.701Z,100998.19
2023-01-29T21:19:50.207Z,101005.97
2023-01-29T21:23:05.254Z,100998.91
2023-01-29T21:26:19.066Z,101001.75
2023-01-29T21:29:31.757Z,101007.78
2023-01-29T21:32:44.140Z,101011.25
2023-01-29T21:35:59.700Z,101014.31
2023-01-29T21:39:17.996Z,101016.44
2023-01-29T21:42:49.257Z,101029.72
2023-01-29T21:46:11.406Z,101026.75
2023-01-29T21:49:24.283Z,101009.06
2023-01-29T21:52:36.598Z,101007.44
2023-01-29T21:55:49.236Z,101003.41
2023-01-29T21:59:02.432Z,100992.53
2023-01-29T22:02:15.254Z,101002.06
2023-01-29T22:05:29.216Z,100994.00
2023-01-29T22:08:41.600Z,100991.22
2023-01-29T22:11:54.406Z,100992.06
2023-01-29T22:15:07.742Z,100985.94
2023-01-29T22:18:20.411Z,100981.28
2023-01-29T22:21:35.072Z,100979.72
2023-01-29T22:24:48.638Z,100966.81
2023-01-29T22:28:00.997Z,100966.97
2023-01-29T22:31:13.707Z,100954.16
2023-01-29T22:34:26.011Z,100956.38
2023-01-29T22:37:38.618Z,100956.06
2023-01-29T22:40:54.200Z,100955.78
2023-01-29T22:44:06.911Z,100944.44
2023-01-29T22:47:19.277Z,100944.41
2023-01-29T22:50:31.914Z,100939.78
2023-01-29T22:53:54.382Z,100945.56
2023-01-29T22:57:07.092Z,100939.44
2023-01-29T23:00:20.083Z,100933.41
2023-01-29T23:03:32.928Z,100935.50
2023-01-29T23:06:45.255Z,100932.28
2023-01-29T23:09:58.115Z,100925.25
2023-01-29T23:13:10.507Z,100930.19
2023-01-29T23:16:26.791Z,100928.00
2023-01-29T23:19:40.038Z,100925.50
2023-01-29T23:22:52.617Z,100918.06
2023-01-29T23:26:24.683Z,100924.44
2023-01-29T23:29:37.400Z,100914.06
2023-01-29T23:32:50.101Z,100923.31
2023-01-29T23:36:02.765Z,100911.19
2023-01-29T23:39:15.305Z,100915.78
2023-01-29T23:42:27.910Z,100914.84
2023-01-29T23:45:41.292Z,100915.91
2023-01-29T23:48:53.912Z,100910.00
2023-01-29T23:52:06.267Z,100895.03
2023-01-29T23:55:18.911Z,100900.12
2023-01-29T23:58:31.486Z,100899.78
